Time;durP1;ratioP1;P1;durP2;ratioP2;P2;SDS_P1;SDS_P2;PMS_P1;PMS_P2;Temp;Humidity;BMP_temperature;BMP_pressure;BME280_temperature;BME280_humidity;BME280_pressure;Samples;Min_cycle;Max_cycle;Signal;HPM_P1;HPM_P2
2021/09/19 00:02:08;;;;;;;4.90;2.45;;;;;;;7.41;94.09;102338.53;4827047;29;20366;-78
2021/09/19 00:04:33;;;;;;;4.43;2.08;;;;;;;7.33;94.65;102333.06;4827644;29;20042;-78
2021/09/19 00:06:59;;;;;;;4.65;2.35;;;;;;;7.28;94.44;102333.50;4810566;29;20034;-79
2021/09/19 00:09:24;;;;;;;4.13;2.30;;;;;;;7.29;95.08;102332.50;4826914;29;20042;-79
2021/09/19 00:11:50;;;;;;;4.95;2.50;;;;;;;7.17;94.87;102325.56;4811881;29;20474;-78
2021/09/19 00:14:16;;;;;;;8.40;2.65;;;;;;;7.22;95.11;102335.88;4827273;29;20489;-79
2021/09/19 00:16:42;;;;;;;5.20;2.22;;;;;;;7.22;95.45;102336.72;4827101;29;20063;-79
2021/09/19 00:19:08;;;;;;;4.97;2.70;;;;;;;7.02;95.53;102298.38;4827504;29;20054;-79
2021/09/19 00:21:33;;;;;;;5.05;2.45;;;;;;;7.14;95.59;102330.34;4828672;29;20472;-79
2021/09/19 00:24:00;;;;;;;5.47;2.45;;;;;;;7.17;96.00;102340.78;4802272;29;20885;-79
2021/09/19 00:26:27;;;;;;;3.17;2.50;;;;;;;7.13;96.25;102334.03;4811961;29;20034;-78
2021/09/19 00:28:52;;;;;;;4.07;2.78;;;;;;;7.17;95.98;102330.09;4826442;29;20039;-79
2021/09/19 00:31:18;;;;;;;3.75;2.60;;;;;;;7.23;96.17;102341.09;4824512;29;20041;-78
2021/09/19 00:33:43;;;;;;;4.20;2.22;;;;;;;7.20;96.33;102332.47;4812877;29;20057;-79
2021/09/19 00:36:08;;;;;;;5.05;2.40;;;;;;;7.22;96.05;102326.00;4827583;29;20385;-79
2021/09/19 00:38:34;;;;;;;3.30;2.33;;;;;;;7.30;96.67;102350.25;4812644;29;20058;-79
2021/09/19 00:41:01;;;;;;;5.43;2.35;;;;;;;7.28;96.79;102327.25;4796085;29;20074;-78
2021/09/19 00:43:26;;;;;;;4.90;2.55;;;;;;;7.35;96.67;102332.91;4810902;29;20045;-78
2021/09/19 00:45:52;;;;;;;3.40;2.35;;;;;;;7.39;96.71;102343.22;4810900;29;20034;-79
2021/09/19 00:48:17;;;;;;;3.90;2.17;;;;;;;7.46;96.56;102343.50;4828492;29;20113;-79
2021/09/19 00:50:43;;;;;;;2.53;1.90;;;;;;;7.48;96.47;102337.03;4827478;29;20454;-79
2021/09/19 00:53:09;;;;;;;7.45;2.40;;;;;;;7.49;96.60;102336.03;4829425;29;20040;-79
2021/09/19 00:55:35;;;;;;;3.55;2.40;;;;;;;7.54;96.59;102344.47;4826535;29;20091;-79
2021/09/19 00:58:04;;;;;;;7.32;2.22;;;;;;;7.53;96.44;102332.06;4783274;29;20064;-78
2021/09/19 01:00:30;;;;;;;4.22;2.50;;;;;;;7.61;96.47;102338.53;4827801;29;20049;-78
2021/09/19 01:02:56;;;;;;;3.65;2.22;;;;;;;7.63;96.08;102341.94;4813473;29;20142;-78
2021/09/19 01:05:23;;;;;;;6.13;2.45;;;;;;;7.62;95.95;102337.56;4829398;29;20524;-78
2021/09/19 01:07:50;;;;;;;4.50;2.50;;;;;;;7.60;96.51;102336.88;4813687;29;20039;-79
2021/09/19 01:10:18;;;;;;;3.83;2.35;;;;;;;7.60;96.11;102342.22;4829389;29;20038;-79
2021/09/19 01:12:44;;;;;;;4.43;2.30;;;;;;;7.59;96.44;102327.97;4837778;29;20030;-80
2021/09/19 01:15:11;;;;;;;3.80;2.47;;;;;;;7.66;96.41;102342.50;4838687;29;20010;-78
2021/09/19 01:17:39;;;;;;;4.80;2.50;;;;;;;7.65;96.75;102335.47;4827295;29;20544;-79
2021/09/19 01:20:09;;;;;;;3.90;2.45;;;;;;;7.66;96.56;102338.97;4810451;29;20038;-79
2021/09/19 01:22:38;;;;;;;3.75;2.30;;;;;;;7.66;96.79;102333.63;4810293;29;20067;-79
2021/09/19 01:25:07;;;;;;;3.38;2.35;;;;;;;7.72;96.35;102339.25;4823890;29;20037;-79
2021/09/19 01:27:32;;;;;;;4.63;2.33;;;;;;;7.74;96.51;102339.09;4826234;29;20037;-79
2021/09/19 01:29:58;;;;;;;3.53;2.20;;;;;;;7.68;96.21;102324.47;4825267;29;20022;-79
2021/09/19 01:32:23;;;;;;;3.55;2.45;;;;;;;7.72;96.62;102333.91;4826377;29;20038;-79
2021/09/19 01:34:50;;;;;;;2.92;2.08;;;;;;;7.73;96.54;102343.63;4812810;29;20034;-79
2021/09/19 01:37:16;;;;;;;3.03;2.08;;;;;;;7.74;96.34;102344.44;4828860;29;20030;-78
2021/09/19 01:39:42;;;;;;;2.53;2.20;;;;;;;7.74;96.47;102339.94;4828028;29;20034;-79
2021/09/19 01:42:07;;;;;;;5.72;2.40;;;;;;;7.76;96.28;102335.28;4813315;29;20069;-78
2021/09/19 01:44:33;;;;;;;5.18;2.50;;;;;;;7.78;96.23;102340.50;4830535;29;20070;-79
2021/09/19 01:46:58;;;;;;;6.55;2.13;;;;;;;7.74;96.59;102331.06;4829939;29;20034;-78
2021/09/19 01:49:24;;;;;;;2.70;2.15;;;;;;;7.77;96.52;102336.13;4801413;29;20499;-79
2021/09/19 01:51:49;;;;;;;4.90;2.70;;;;;;;7.71;96.99;102323.31;4837731;29;20129;-80
2021/09/19 01:54:16;;;;;;;2.75;2.33;;;;;;;7.77;96.15;102338.81;4838609;29;20035;-80
2021/09/19 01:56:42;;;;;;;3.20;1.98;;;;;;;7.81;96.78;102334.84;4796724;29;20380;-78
2021/09/19 01:59:07;;;;;;;4.13;2.47;;;;;;;7.81;96.65;102337.53;4810491;29;20053;-78
2021/09/19 02:01:33;;;;;;;2.97;2.28;;;;;;;7.61;96.43;102306.41;4826106;29;20446;-79
2021/09/19 02:03:59;;;;;;;2.85;2.13;;;;;;;7.79;96.85;102341.38;4811983;29;20061;-78
2021/09/19 02:06:24;;;;;;;4.07;2.53;;;;;;;7.76;97.18;102337.13;4825995;29;20109;-78
2021/09/19 02:08:50;;;;;;;3.65;2.15;;;;;;;7.78;97.29;102335.13;4815397;29;20113;-78
2021/09/19 02:11:18;;;;;;;3.70;2.17;;;;;;;7.76;97.13;102327.25;4815231;29;20030;-79
2021/09/19 02:13:45;;;;;;;4.93;2.20;;;;;;;7.78;97.23;102324.41;4829546;29;20053;-79
2021/09/19 02:16:11;;;;;;;4.82;2.50;;;;;;;7.77;97.45;102325.41;4816185;29;20034;-78
2021/09/19 02:18:36;;;;;;;7.35;2.20;;;;;;;7.79;97.70;102326.13;4833910;29;20426;-79
2021/09/19 02:21:04;;;;;;;2.55;2.13;;;;;;;7.76;97.91;102316.53;4836908;29;20049;-80
2021/09/19 02:23:30;;;;;;;3.47;2.33;;;;;;;7.86;97.94;102327.25;4842322;29;20046;-80
2021/09/19 02:25:56;;;;;;;3.30;2.38;;;;;;;7.78;97.80;102311.03;4841754;29;20044;-79
2021/09/19 02:28:21;;;;;;;6.13;2.45;;;;;;;7.86;98.10;102319.19;4816511;29;20400;-78
2021/09/19 02:30:47;;;;;;;4.03;2.40;;;;;;;7.88;97.93;102327.94;4825637;29;20038;-79
2021/09/19 02:33:13;;;;;;;3.33;2.22;;;;;;;7.83;97.83;102307.94;4813735;29;20030;-78
2021/09/19 02:35:39;;;;;;;3.65;2.10;;;;;;;7.87;97.61;102312.00;4797035;29;20095;-79
2021/09/19 02:38:05;;;;;;;3.28;2.28;;;;;;;7.86;98.07;102308.47;4813763;29;20045;-79
2021/09/19 02:40:30;;;;;;;6.47;2.28;;;;;;;7.88;97.53;102317.22;4827711;29;20058;-78
2021/09/19 02:42:56;;;;;;;4.20;2.10;;;;;;;7.89;97.37;102315.38;4812270;29;20046;-78
2021/09/19 02:45:22;;;;;;;3.05;2.10;;;;;;;7.89;97.69;102310.88;4823798;29;20047;-78
2021/09/19 02:47:48;;;;;;;3.85;2.15;;;;;;;7.90;97.74;102317.91;4826613;29;20078;-78
2021/09/19 02:50:20;;;;;;;4.20;2.50;;;;;;;7.82;97.65;102299.03;4828388;29;20041;-79
2021/09/19 02:52:45;;;;;;;4.88;2.45;;;;;;;7.87;97.25;102312.00;4827684;29;20022;-79
2021/09/19 02:55:12;;;;;;;5.00;2.00;;;;;;;7.92;96.99;102317.78;4827112;29;20034;-79
2021/09/19 02:57:38;;;;;;;2.30;2.00;;;;;;;7.97;97.40;102315.50;4812997;29;20045;-79
2021/09/19 03:00:05;;;;;;;3.78;1.98;;;;;;;7.96;97.13;102316.50;4809102;29;20023;-78
2021/09/19 03:02:31;;;;;;;3.88;2.05;;;;;;;7.92;97.21;102321.31;4826835;29;20038;-79
2021/09/19 03:04:56;;;;;;;5.28;2.28;;;;;;;7.91;97.31;102324.13;4827334;29;20368;-79
2021/09/19 03:07:21;;;;;;;3.20;2.40;;;;;;;7.89;97.51;102316.22;4824957;29;20026;-78
2021/09/19 03:09:47;;;;;;;4.10;2.30;;;;;;;7.85;96.99;102305.97;4803790;29;20525;-79
2021/09/19 03:12:12;;;;;;;3.55;2.30;;;;;;;7.89;97.20;102310.03;4826998;29;20103;-79
2021/09/19 03:14:38;;;;;;;2.80;1.98;;;;;;;7.90;97.55;102315.22;4811357;29;20126;-79
2021/09/19 03:17:03;;;;;;;3.53;2.33;;;;;;;7.75;97.40;102289.91;4812889;29;20031;-78
2021/09/19 03:19:29;;;;;;;5.05;2.22;;;;;;;7.93;96.74;102314.09;4826703;29;20546;-79
2021/09/19 03:21:54;;;;;;;3.20;2.30;;;;;;;7.84;97.57;102297.03;4825021;29;20347;-78
2021/09/19 03:24:19;;;;;;;4.90;2.40;;;;;;;7.94;97.28;102318.47;4815466;29;20038;-78
2021/09/19 03:26:46;;;;;;;5.00;2.25;;;;;;;7.91;97.24;102319.63;4812372;29;20069;-78
2021/09/19 03:29:12;;;;;;;3.00;2.17;;;;;;;7.83;96.62;102308.75;4826681;29;20050;-79
2021/09/19 03:31:38;;;;;;;6.72;2.30;;;;;;;7.84;96.90;102307.75;4828259;29;20350;-79
2021/09/19 03:34:03;;;;;;;3.97;2.33;;;;;;;7.87;97.10;102304.81;4810914;29;20117;-78
2021/09/19 03:36:28;;;;;;;2.65;2.03;;;;;;;7.95;97.40;102325.53;4827086;29;20026;-78
2021/09/19 03:38:54;;;;;;;3.65;2.13;;;;;;;7.93;96.97;102316.78;4797336;29;20058;-78
2021/09/19 03:41:19;;;;;;;3.53;1.98;;;;;;;7.96;96.92;102319.19;4811378;29;20090;-78
2021/09/19 03:43:45;;;;;;;3.53;2.40;;;;;;;7.91;96.88;102316.06;4811717;29;20041;-78
2021/09/19 03:46:10;;;;;;;5.88;2.42;;;;;;;7.82;96.89;102301.72;4830111;29;20031;-78
2021/09/19 03:48:36;;;;;;;3.92;2.10;;;;;;;7.93;96.88;102323.00;4809184;29;20062;-78
2021/09/19 03:51:02;;;;;;;4.57;2.10;;;;;;;7.88;97.26;102309.19;4819297;29;20086;-79
2021/09/19 03:53:27;;;;;;;5.78;2.00;;;;;;;7.86;96.82;102308.47;4840511;29;20087;-79
2021/09/19 03:55:53;;;;;;;3.00;1.83;;;;;;;7.87;97.09;102312.00;4842174;29;20037;-78
2021/09/19 03:58:18;;;;;;;2.90;2.13;;;;;;;7.86;96.91;102313.00;4827717;29;20044;-78
2021/09/19 04:00:43;;;;;;;2.95;2.25;;;;;;;7.80;96.80;102305.53;4811494;29;20064;-78
2021/09/19 04:03:09;;;;;;;2.80;2.08;;;;;;;7.88;97.11;102313.69;4812595;29;20106;-78
2021/09/19 04:05:36;;;;;;;3.30;2.10;;;;;;;7.85;96.66;102325.56;4811931;29;20031;-78
2021/09/19 04:08:04;;;;;;;5.63;2.20;;;;;;;7.86;96.93;102311.16;4811669;29;20045;-77
2021/09/19 04:10:30;;;;;;;5.00;2.10;;;;;;;7.88;96.51;102314.56;4782315;29;20042;-79
2021/09/19 04:12:55;;;;;;;3.50;2.17;;;;;;;7.70;96.07;102290.31;4828180;29;20042;-79
2021/09/19 04:15:21;;;;;;;4.38;2.17;;;;;;;7.84;96.41;102313.13;4797375;29;20053;-78
2021/09/19 04:17:46;;;;;;;4.40;2.30;;;;;;;7.82;96.65;102315.13;4827961;29;20110;-79
2021/09/19 04:20:13;;;;;;;6.45;2.20;;;;;;;7.80;96.19;102317.09;4827100;29;20035;-79
2021/09/19 04:22:39;;;;;;;5.35;1.80;;;;;;;7.80;96.47;102313.56;4829302;29;20042;-78
2021/09/19 04:25:06;;;;;;;8.65;2.95;;;;;;;7.82;95.71;102316.97;4828257;29;20027;-78
2021/09/19 04:27:32;;;;;;;6.53;1.92;;;;;;;7.69;95.43;102298.50;4813293;29;20034;-78
2021/09/19 04:29:57;;;;;;;4.63;2.20;;;;;;;7.84;94.66;102318.50;4829814;29;20041;-79
2021/09/19 04:32:23;;;;;;;3.28;1.90;;;;;;;7.76;95.28;102315.69;4815515;29;20042;-78
2021/09/19 04:34:48;;;;;;;2.67;2.03;;;;;;;7.68;94.83;102308.38;4816612;29;20061;-78
2021/09/19 04:37:16;;;;;;;6.47;2.00;;;;;;;7.80;94.78;102325.13;4833443;29;20054;-78
2021/09/19 04:39:42;;;;;;;4.43;1.90;;;;;;;7.80;94.57;102326.97;4834367;29;20026;-78
2021/09/19 04:42:08;;;;;;;3.13;1.58;;;;;;;7.70;93.91;102311.75;4821946;29;20114;-79
2021/09/19 04:44:33;;;;;;;2.72;1.80;;;;;;;7.75;94.26;102320.22;4826454;29;20045;-78
2021/09/19 04:46:59;;;;;;;3.83;1.98;;;;;;;7.75;94.11;102319.38;4827026;29;20030;-78
2021/09/19 04:49:24;;;;;;;5.82;2.20;;;;;;;7.72;93.93;102316.97;4826921;29;20135;-78
2021/09/19 04:51:50;;;;;;;2.45;1.75;;;;;;;7.78;93.34;102327.09;4824260;29;20072;-78
2021/09/19 04:54:15;;;;;;;2.95;1.95;;;;;;;7.75;93.73;102316.69;4824028;29;20038;-78
2021/09/19 04:56:40;;;;;;;4.47;1.88;;;;;;;7.80;93.22;102326.97;4824399;29;20038;-78
2021/09/19 04:59:06;;;;;;;3.00;1.77;;;;;;;7.82;93.11;102330.38;4807343;29;20845;-78
2021/09/19 05:01:31;;;;;;;2.40;1.88;;;;;;;7.83;92.99;102332.03;4795893;29;20121;-78
2021/09/19 05:03:57;;;;;;;2.95;1.70;;;;;;;7.83;93.80;102337.41;4801221;29;20062;-78
2021/09/19 05:06:22;;;;;;;4.07;1.67;;;;;;;7.82;93.42;102336.56;4812156;29;20513;-78
2021/09/19 05:08:47;;;;;;;4.70;1.90;;;;;;;7.83;93.67;102330.19;4811250;29;20030;-79
2021/09/19 05:11:13;;;;;;;3.65;1.75;;;;;;;7.83;93.37;102327.53;4830494;29;20069;-78
2021/09/19 05:13:38;;;;;;;3.78;1.70;;;;;;;7.77;93.44;102320.06;4830861;29;20119;-79
2021/09/19 05:16:04;;;;;;;3.13;1.80;;;;;;;7.80;93.08;102322.44;4835159;29;20042;-78
2021/09/19 05:18:29;;;;;;;3.80;1.90;;;;;;;7.86;93.35;102337.97;4828665;29;20037;-78
2021/09/19 05:20:54;;;;;;;2.63;1.75;;;;;;;7.86;92.90;102331.75;4809681;29;20042;-79
2021/09/19 05:23:20;;;;;;;2.80;1.73;;;;;;;7.88;93.46;102337.81;4827030;29;20046;-79
2021/09/19 05:25:45;;;;;;;4.20;1.92;;;;;;;7.90;93.26;102338.50;4808847;29;20080;-79
2021/09/19 05:28:11;;;;;;;5.28;2.00;;;;;;;7.79;92.94;102318.09;4831500;29;20090;-79
2021/09/19 05:30:36;;;;;;;2.72;1.80;;;;;;;7.89;92.31;102340.34;4827161;29;20038;-79
2021/09/19 05:33:02;;;;;;;3.10;1.85;;;;;;;7.94;92.61;102343.44;4825858;29;20340;-78
2021/09/19 05:35:28;;;;;;;3.05;1.80;;;;;;;7.96;92.82;102340.63;4823928;29;20050;-79
2021/09/19 05:37:54;;;;;;;5.47;2.10;;;;;;;7.97;92.67;102345.81;4826169;29;20045;-78
2021/09/19 05:40:19;;;;;;;3.20;1.70;;;;;;;8.00;92.88;102342.03;4824800;29;20030;-80
2021/09/19 05:42:44;;;;;;;3.72;1.40;;;;;;;7.97;92.44;102335.09;4825525;29;20457;-79
2021/09/19 05:45:11;;;;;;;3.00;1.73;;;;;;;7.96;92.63;102333.44;4810898;29;20034;-78
2021/09/19 05:47:36;;;;;;;2.55;1.60;;;;;;;7.97;92.69;102328.91;4825758;29;20748;-79
2021/09/19 05:50:03;;;;;;;2.78;1.65;;;;;;;8.06;92.75;102343.28;4796042;29;20042;-78
2021/09/19 05:52:28;;;;;;;4.80;1.75;;;;;;;8.00;92.21;102334.81;4815980;29;20869;-78
2021/09/19 05:54:54;;;;;;;3.00;2.00;;;;;;;8.11;92.95;102341.00;4826529;29;20034;-79
2021/09/19 05:57:21;;;;;;;3.42;2.10;;;;;;;8.10;92.67;102331.28;4813765;29;20027;-79
2021/09/19 05:59:47;;;;;;;2.90;1.73;;;;;;;8.07;92.47;102337.75;4801436;29;20019;-79
2021/09/19 06:02:12;;;;;;;3.20;1.92;;;;;;;8.14;92.10;102340.72;4819041;29;20133;-79
2021/09/19 06:04:37;;;;;;;4.13;1.88;;;;;;;8.21;91.88;102342.69;4788946;29;20350;-79
2021/09/19 06:07:03;;;;;;;3.67;1.95;;;;;;;8.22;91.74;102343.53;4811540;29;20086;-79
2021/09/19 06:09:29;;;;;;;3.35;1.80;;;;;;;8.22;91.35;102339.00;4824048;29;20038;-78
2021/09/19 06:11:55;;;;;;;5.15;1.65;;;;;;;8.28;91.15;102352.81;4823256;29;20038;-79
2021/09/19 06:14:20;;;;;;;2.28;1.80;;;;;;;8.28;91.58;102342.06;4809675;29;20038;-79
2021/09/19 06:16:45;;;;;;;3.20;1.50;;;;;;;8.33;91.25;102339.81;4808826;29;20107;-78
2021/09/19 06:19:11;;;;;;;1.80;1.48;;;;;;;8.40;91.14;102352.50;4826580;29;20027;-79
2021/09/19 06:21:36;;;;;;;6.45;1.92;;;;;;;8.40;91.30;102347.16;4827260;29;20457;-78
2021/09/19 06:24:02;;;;;;;3.35;1.90;;;;;;;8.50;90.85;102355.16;4796877;29;20045;-78
2021/09/19 06:26:27;;;;;;;1.63;1.52;;;;;;;8.52;91.09;102346.97;4827911;29;20034;-79
2021/09/19 06:28:54;;;;;;;2.13;1.88;;;;;;;8.66;90.63;102358.06;4808230;29;20065;-78
2021/09/19 06:31:22;;;;;;;2.47;1.80;;;;;;;8.67;90.31;102351.69;4824726;29;20034;-78
2021/09/19 06:33:47;;;;;;;3.83;1.90;;;;;;;8.72;90.74;102348.56;4825203;29;20045;-78
2021/09/19 06:36:13;;;;;;;4.25;2.10;;;;;;;8.74;90.29;102341.22;4808700;29;20034;-79
2021/09/19 06:38:38;;;;;;;4.85;1.80;;;;;;;8.86;90.54;102348.06;4806397;29;20061;-78
2021/09/19 06:41:04;;;;;;;3.55;1.77;;;;;;;8.87;89.72;102349.78;4806230;29;20135;-78
2021/09/19 06:43:29;;;;;;;3.47;1.70;;;;;;;8.96;89.89;102358.75;4793598;29;20042;-78
2021/09/19 06:45:54;;;;;;;4.75;1.75;;;;;;;9.01;90.17;102358.31;4831784;29;20035;-79
2021/09/19 06:48:20;;;;;;;4.55;1.77;;;;;;;9.07;89.75;102361.25;4813801;29;20089;-79
2021/09/19 06:50:45;;;;;;;3.10;1.67;;;;;;;9.20;89.48;102358.16;4805132;29;20033;-79
2021/09/19 06:53:11;;;;;;;2.85;1.85;;;;;;;9.26;89.18;102360.25;4795086;29;20098;-81
2021/09/19 06:55:36;;;;;;;4.85;1.95;;;;;;;9.26;89.47;102354.88;4815953;29;20422;-78
2021/09/19 06:58:02;;;;;;;3.45;1.60;;;;;;;9.38;89.03;102358.19;4828512;29;20536;-79
2021/09/19 07:00:27;;;;;;;2.75;1.70;;;;;;;9.41;88.29;102357.88;4829197;29;20034;-80
2021/09/19 07:02:53;;;;;;;3.22;1.60;;;;;;;9.41;88.69;102358.72;4830476;29;20041;-80
2021/09/19 07:05:19;;;;;;;3.75;1.80;;;;;;;9.52;87.10;102362.19;4831206;29;20053;-78
2021/09/19 07:07:44;;;;;;;2.20;1.67;;;;;;;9.57;86.78;102357.16;4814212;29;20062;-81
2021/09/19 07:10:10;;;;;;;3.65;1.80;;;;;;;9.69;87.02;102353.25;4829663;29;20364;-79
2021/09/19 07:12:36;;;;;;;4.10;1.85;;;;;;;9.75;86.54;102346.41;4812446;29;20035;-81
2021/09/19 07:15:01;;;;;;;2.60;1.70;;;;;;;9.84;86.27;102346.31;4812839;29;20039;-80
2021/09/19 07:17:26;;;;;;;2.05;1.88;;;;;;;9.97;86.17;102353.16;4820817;29;20034;-81
2021/09/19 07:19:52;;;;;;;2.55;1.73;;;;;;;10.04;86.57;102360.41;4827968;29;20041;-80
2021/09/19 07:22:17;;;;;;;2.63;1.63;;;;;;;10.06;85.86;102357.56;4814331;29;20046;-79
2021/09/19 07:24:43;;;;;;;3.50;1.80;;;;;;;10.10;85.31;102351.72;4817052;29;20030;-80
2021/09/19 07:27:08;;;;;;;3.25;1.88;;;;;;;10.18;84.99;102366.22;4835755;29;20030;-80
2021/09/19 07:29:34;;;;;;;1.88;1.50;;;;;;;10.26;84.59;102366.28;4837381;29;20031;-80
2021/09/19 07:32:01;;;;;;;2.35;1.55;;;;;;;10.26;84.32;102359.06;4841943;29;20052;-80
2021/09/19 07:34:29;;;;;;;4.15;1.50;;;;;;;10.38;83.64;102365.03;4843339;29;20023;-80
2021/09/19 07:36:55;;;;;;;1.73;1.30;;;;;;;10.40;83.32;102362.16;4831795;29;20030;-80
2021/09/19 07:39:20;;;;;;;3.15;1.65;;;;;;;10.40;82.76;102349.59;4829219;29;20026;-80
2021/09/19 07:41:48;;;;;;;2.10;1.42;;;;;;;10.58;82.39;102362.94;4812624;29;20058;-78
2021/09/19 07:44:14;;;;;;;1.52;1.27;;;;;;;10.44;81.57;102355.50;4829001;29;20648;-80
2021/09/19 07:46:40;;;;;;;1.70;1.60;;;;;;;10.53;81.38;102359.91;4828801;29;20034;-79
2021/09/19 07:49:06;;;;;;;1.58;1.48;;;;;;;10.65;81.82;102360.47;4784301;29;20030;-80
2021/09/19 07:51:32;;;;;;;1.70;1.30;;;;;;;10.67;80.43;102367.38;4828880;29;20034;-78
2021/09/19 07:53:58;;;;;;;2.00;1.52;;;;;;;10.71;80.15;102367.91;4810572;29;20109;-79
2021/09/19 07:56:23;;;;;;;2.35;1.30;;;;;;;10.57;79.14;102355.88;4798005;29;20034;-80
2021/09/19 07:58:49;;;;;;;3.25;1.45;;;;;;;10.72;78.72;102364.19;4828518;29;20026;-78
2021/09/19 08:01:15;;;;;;;3.80;1.63;;;;;;;10.78;78.97;102364.38;4813089;29;20022;-78
2021/09/19 08:03:40;;;;;;;2.08;1.27;;;;;;;10.98;78.80;102373.03;4813942;29;20057;-80
2021/09/19 08:06:06;;;;;;;2.08;1.50;;;;;;;10.94;77.77;102370.84;4798708;29;20030;-83
2021/09/19 08:08:31;;;;;;;1.70;1.38;;;;;;;10.92;77.27;102376.38;4802907;29;20100;-81
2021/09/19 08:10:57;;;;;;;1.88;1.33;;;;;;;11.00;77.23;102364.81;4830947;29;20042;-82
2021/09/19 08:13:23;;;;;;;1.48;1.27;;;;;;;11.05;76.56;102376.75;4816569;29;20101;-82
2021/09/19 08:15:48;;;;;;;2.38;1.50;;;;;;;11.17;76.20;102374.63;4833052;29;20034;-83
2021/09/19 08:18:13;;;;;;;2.80;1.30;;;;;;;11.29;76.66;102378.69;4816203;29;20495;-80
2021/09/19 08:20:39;;;;;;;2.35;1.50;;;;;;;11.34;75.65;102375.50;4833734;29;20034;-83
2021/09/19 08:23:04;;;;;;;2.10;1.30;;;;;;;11.31;75.29;102377.69;4804658;29;20055;-82
2021/09/19 08:25:30;;;;;;;2.35;1.20;;;;;;;11.12;74.25;102363.47;4831258;29;20369;-78
2021/09/19 08:27:55;;;;;;;1.27;1.08;;;;;;;11.22;74.14;102363.34;4814880;29;20076;-81
2021/09/19 08:30:20;;;;;;;1.73;1.33;;;;;;;11.32;74.64;102382.03;4819399;29;20113;-82
2021/09/19 08:32:46;;;;;;;1.33;1.20;;;;;;;11.42;74.58;102358.47;4817040;29;20038;-79
2021/09/19 08:35:13;;;;;;;1.95;1.42;;;;;;;11.58;73.57;102376.53;4829771;29;20030;-79
2021/09/19 08:37:39;;;;;;;1.88;1.20;;;;;;;11.41;73.42;102346.88;4825922;29;20069;-80
2021/09/19 08:40:07;;;;;;;3.38;1.30;;;;;;;11.61;72.43;102371.66;4799268;29;20034;-78
2021/09/19 08:42:32;;;;;;;1.20;1.10;;;;;;;11.52;72.59;102373.50;4832016;29;20034;-82
2021/09/19 08:44:59;;;;;;;1.58;1.45;;;;;;;11.63;72.28;102369.63;4833337;29;20091;-83
2021/09/19 08:47:29;;;;;;;2.75;1.70;;;;;;;11.64;72.20;102363.22;4801128;29;20044;-80
2021/09/19 08:49:54;;;;;;;1.88;1.23;;;;;;;11.86;71.60;102377.94;4816337;29;20037;-83
2021/09/19 08:52:20;;;;;;;1.70;1.23;;;;;;;11.63;70.37;102345.38;4834936;29;20038;-80
2021/09/19 08:54:45;;;;;;;2.17;1.25;;;;;;;11.87;70.18;102379.59;4832902;29;20083;-82
2021/09/19 08:57:12;;;;;;;1.35;1.13;;;;;;;11.88;70.43;102375.06;4790477;29;20062;-83
2021/09/19 08:59:46;;;;;;;2.25;1.20;;;;;;;11.93;70.34;102370.00;4817481;29;20068;-84
2021/09/19 09:02:14;;;;;;;1.40;1.30;;;;;;;12.06;70.49;102378.41;4835842;29;20105;-82
2021/09/19 09:04:40;;;;;;;2.95;1.30;;;;;;;11.95;69.87;102376.91;4833919;29;20026;-81
2021/09/19 09:07:06;;;;;;;1.95;1.20;;;;;;;11.76;69.18;102348.41;4834183;29;20042;-83
2021/09/19 09:09:32;;;;;;;1.52;1.30;;;;;;;11.94;68.62;102363.59;4834508;29;20054;-82
2021/09/19 09:12:04;;;;;;;2.17;1.30;;;;;;;11.94;67.35;102377.06;4802621;29;20064;-84
2021/09/19 09:14:36;;;;;;;1.38;1.20;;;;;;;11.96;68.08;102372.38;4837265;29;20026;-81
2021/09/19 09:17:17;;;;;;;1.92;1.10;;;;;;;12.01;66.28;102377.25;4834449;29;20033;-81
2021/09/19 09:19:46;;;;;;;1.35;1.02;;;;;;;12.12;66.73;102366.94;4839495;29;20037;-81
2021/09/19 09:22:12;;;;;;;1.30;1.05;;;;;;;12.02;67.24;102365.41;4837858;29;20093;-84
2021/09/19 09:24:40;;;;;;;1.20;1.08;;;;;;;12.20;67.24;102374.19;4804806;29;20045;-81
2021/09/19 09:27:20;;;;;;;1.52;1.30;;;;;;;12.15;66.71;102369.31;4819455;29;20039;-81
2021/09/19 09:30:19;;;;;;;1.65;1.23;;;;;;;12.28;69.49;102376.00;4805934;29;20030;-78
2021/09/19 09:33:04;;;;;;;3.15;1.60;;;;;;;12.37;69.40;102364.19;4802765;29;20517;-81
2021/09/19 09:35:36;;;;;;;1.55;1.17;;;;;;;12.46;69.41;102366.69;4843543;29;20025;-84
2021/09/19 09:38:19;;;;;;;3.47;1.63;;;;;;;12.36;69.17;102354.41;4843376;29;20026;-85
2021/09/19 09:40:45;;;;;;;1.58;1.45;;;;;;;12.31;69.10;102362.16;4835399;29;20043;-82
2021/09/19 09:43:13;;;;;;;1.75;1.20;;;;;;;12.21;68.90;102363.19;4823398;29;20050;-84
2021/09/19 09:45:42;;;;;;;1.40;1.30;;;;;;;12.40;69.29;102366.53;4839056;29;20031;-85
2021/09/19 09:48:33;;;;;;;1.35;1.25;;;;;;;12.65;68.76;102365.47;4839820;29;20038;-85
2021/09/19 09:51:01;;;;;;;2.08;1.48;;;;;;;12.51;68.92;102358.06;4840016;29;20064;-84
2021/09/19 09:53:27;;;;;;;2.55;1.10;;;;;;;12.52;68.76;102365.16;4809745;29;20097;-84
2021/09/19 09:55:55;;;;;;;1.40;1.20;;;;;;;12.61;68.50;102358.69;4824469;29;20050;-81
2021/09/19 09:58:22;;;;;;;2.33;1.33;;;;;;;12.41;67.81;102358.25;4824055;29;20034;-81
2021/09/19 10:00:54;;;;;;;1.63;1.40;;;;;;;12.51;67.33;102363.47;4836204;29;20042;-79
2021/09/19 10:03:19;;;;;;;1.90;1.42;;;;;;;12.60;67.21;102359.72;4829139;29;20457;-80
2021/09/19 10:05:45;;;;;;;1.83;1.50;;;;;;;12.55;67.34;102362.13;4807951;29;20042;-79
2021/09/19 10:08:11;;;;;;;2.30;1.40;;;;;;;12.67;67.44;102344.50;4809215;29;20102;-80
2021/09/19 10:10:40;;;;;;;2.08;1.48;;;;;;;12.76;66.68;102356.13;4824163;29;20045;-79
2021/09/19 10:13:07;;;;;;;2.28;1.30;;;;;;;12.84;67.06;102353.38;4811028;29;20030;-80
2021/09/19 10:15:33;;;;;;;2.95;1.40;;;;;;;12.81;66.40;102342.06;4807762;29;20403;-80
2021/09/19 10:17:59;;;;;;;1.33;1.20;;;;;;;12.83;66.60;102337.34;4827404;29;20037;-80
2021/09/19 10:20:30;;;;;;;3.92;1.35;;;;;;;12.97;66.94;102347.41;4830567;29;20030;-80
2021/09/19 10:23:01;;;;;;;1.42;1.30;;;;;;;13.07;66.59;102350.72;4839111;29;20039;-79
2021/09/19 10:25:37;;;;;;;2.67;1.27;;;;;;;13.10;65.97;102347.66;4834529;29;20191;-81
2021/09/19 10:28:26;;;;;;;2.05;1.20;;;;;;;13.30;66.23;102347.25;4817673;29;20507;-82
2021/09/19 10:31:17;;;;;;;1.40;1.00;;;;;;;13.08;63.84;102354.28;4840843;29;20030;-79
2021/09/19 10:33:49;;;;;;;2.53;1.20;;;;;;;12.99;64.29;102342.66;4838554;29;20030;-79
2021/09/19 10:36:28;;;;;;;1.70;1.13;;;;;;;12.99;64.53;102345.38;4832707;29;20030;-79
2021/09/19 10:39:10;;;;;;;2.42;1.15;;;;;;;12.83;63.64;102335.50;4831489;29;20038;-78
2021/09/19 10:41:36;;;;;;;1.30;1.10;;;;;;;12.78;64.56;102337.88;4824250;29;20102;-78
2021/09/19 10:44:03;;;;;;;1.75;1.27;;;;;;;12.83;64.84;102338.19;4820054;29;20090;-81
2021/09/19 10:46:48;;;;;;;1.45;1.20;;;;;;;13.01;63.98;102337.91;4818730;29;20437;-81
2021/09/19 10:49:14;;;;;;;1.88;1.05;;;;;;;12.94;63.97;102335.06;4832391;29;20041;-79
2021/09/19 10:52:01;;;;;;;1.60;1.10;;;;;;;12.85;62.75;102335.31;4817146;29;20049;-81
2021/09/19 10:54:42;;;;;;;2.00;1.40;;;;;;;12.86;61.76;102328.91;4831677;29;20085;-81
2021/09/19 10:57:14;;;;;;;1.30;1.20;;;;;;;12.81;63.21;102333.97;4816022;29;20045;-80
2021/09/19 11:00:15;;;;;;;1.75;1.25;;;;;;;12.83;61.40;102331.94;4830927;29;20429;-80
2021/09/19 11:02:58;;;;;;;1.88;1.40;;;;;;;13.12;61.39;102329.41;4787493;29;20049;-80
2021/09/19 11:05:29;;;;;;;5.90;2.22;;;;;;;13.00;59.95;102330.84;4828167;29;20403;-78
2021/09/19 11:08:08;;;;;;;2.72;1.52;;;;;;;12.91;56.41;102332.75;4827309;29;20350;-77
2021/09/19 11:10:46;;;;;;;2.72;1.70;;;;;;;12.92;59.22;102339.84;4826448;29;20090;-80
2021/09/19 11:13:38;;;;;;;7.07;2.63;;;;;;;13.20;58.74;102335.78;4831822;29;20099;-79
2021/09/19 11:16:03;;;;;;;17.60;8.43;;;;;;;13.11;54.96;102340.38;4829420;29;20022;-80
2021/09/19 11:18:42;;;;;;;2.10;1.30;;;;;;;13.01;57.94;102326.25;4832427;29;20109;-79
2021/09/19 11:21:10;;;;;;;2.25;1.58;;;;;;;13.01;58.83;102332.50;4812781;29;20045;-78
2021/09/19 11:23:39;;;;;;;1.52;1.02;;;;;;;12.98;57.52;102319.38;4811735;29;20046;-79
2021/09/19 11:26:06;;;;;;;3.58;1.00;;;;;;;13.21;59.04;102326.66;4829596;29;20030;-78
2021/09/19 11:28:35;;;;;;;1.38;1.10;;;;;;;13.19;59.51;102323.31;4828867;29;20038;-82
2021/09/19 11:31:01;;;;;;;1.65;1.15;;;;;;;13.27;59.77;102307.03;4815231;29;20102;-79